sensor_id;sensor_type;location;lat;lon;timestamp;noise_LAeq;noise_LA_min;noise_LA_max;noise_LA01;noise_LA95
66459;Laerm;70605;52.550;4.730;2023-08-01T00:00:09;52.27;46.36;57.03;;
66459;Laerm;70605;52.550;4.730;2023-08-01T00:00:19;53.28;47.21;69.31;;
66459;Laerm;70605;52.550;4.730;2023-08-01T00:00:30;48.10;44.58;55.75;;
66459;Laerm;70605;52.550;4.730;2023-08-01T00:00:40;45.20;43.53;47.86;;
66459;Laerm;70605;52.550;4.730;2023-08-01T00:00:50;44.60;43.40;48.54;;
66459;Laerm;70605;52.550;4.730;2023-08-01T00:01:01;46.09;43.49;54.59;;
66459;Laerm;70605;52.550;4.730;2023-08-01T00:01:11;46.44;43.48;61.67;;
66459;Laerm;70605;52.550;4.730;2023-08-01T00:01:22;48.41;43.42;61.62;;
66459;Laerm;70605;52.550;4.730;2023-08-01T00:01:32;44.96;43.44;51.21;;
66459;Laerm;70605;52.550;4.730;2023-08-01T00:01:42;50.57;43.67;62.84;;
66459;Laerm;70605;52.550;4.730;2023-08-01T00:01:53;44.86;43.66;52.24;;
66459;Laerm;70605;52.550;4.730;2023-08-01T00:02:03;44.63;43.49;48.92;;
66459;Laerm;70605;52.550;4.730;2023-08-01T00:02:13;44.90;43.50;51.75;;
66459;Laerm;70605;52.550;4.730;2023-08-01T00:02:23;44.16;43.17;45.60;;
66459;Laerm;70605;52.550;4.730;2023-08-01T00:02:34;44.45;43.50;45.86;;
66459;Laerm;70605;52.550;4.730;2023-08-01T00:02:44;44.30;43.31;45.19;;
66459;Laerm;70605;52.550;4.730;2023-08-01T00:02:55;44.30;43.38;45.46;;
66459;Laerm;70605;52.550;4.730;2023-08-01T00:03:05;44.27;43.36;48.35;;
66459;Laerm;70605;52.550;4.730;2023-08-01T00:03:15;44.52;43.36;50.99;;
66459;Laerm;70605;52.550;4.730;2023-08-01T00:03:26;44.00;43.27;45.12;;
66459;Laerm;70605;52.550;4.730;2023-08-01T00:03:36;44.92;42.86;51.70;;
66459;Laerm;70605;52.550;4.730;2023-08-01T00:03:46;46.26;44.24;56.19;;
66459;Laerm;70605;52.550;4.730;2023-08-01T00:03:56;44.49;43.38;47.65;;
66459;Laerm;70605;52.550;4.730;2023-08-01T00:04:07;44.29;43.22;47.02;;
66459;Laerm;70605;52.550;4.730;2023-08-01T00:04:17;44.58;43.04;54.79;;
66459;Laerm;70605;52.550;4.730;2023-08-01T00:04:27;50.39;43.77;61.51;;
66459;Laerm;70605;52.550;4.730;2023-08-01T00:04:37;53.82;43.77;66.53;;
66459;Laerm;70605;52.550;4.730;2023-08-01T00:04:48;44.47;43.41;49.07;;
66459;Laerm;70605;52.550;4.730;2023-08-01T00:04:58;44.26;43.25;46.01;;
66459;Laerm;70605;52.550;4.730;2023-08-01T00:05:08;44.33;43.42;45.86;;
66459;Laerm;70605;52.550;4.730;2023-08-01T00:05:19;44.01;42.78;45.57;;
66459;Laerm;70605;52.550;4.730;2023-08-01T00:05:29;44.07;43.15;44.83;;
66459;Laerm;70605;52.550;4.730;2023-08-01T00:05:39;43.91;43.13;44.74;;
66459;Laerm;70605;52.550;4.730;2023-08-01T00:05:54;43.94;42.98;44.73;;
66459;Laerm;70605;52.550;4.730;2023-08-01T00:06:05;43.95;42.90;44.82;;
66459;Laerm;70605;52.550;4.730;2023-08-01T00:06:15;44.09;43.15;45.57;;
66459;Laerm;70605;52.550;4.730;2023-08-01T00:06:25;44.03;43.17;44.86;;
66459;Laerm;70605;52.550;4.730;2023-08-01T00:06:35;43.98;43.06;44.92;;
66459;Laerm;70605;52.550;4.730;2023-08-01T00:06:46;44.26;43.26;46.78;;
66459;Laerm;70605;52.550;4.730;2023-08-01T00:06:56;46.81;43.29;60.78;;
66459;Laerm;70605;52.550;4.730;2023-08-01T00:07:06;44.24;43.28;45.47;;
66459;Laerm;70605;52.550;4.730;2023-08-01T00:07:16;44.14;43.06;44.85;;
66459;Laerm;70605;52.550;4.730;2023-08-01T00:07:27;45.17;43.42;53.95;;
66459;Laerm;70605;52.550;4.730;2023-08-01T00:07:37;44.29;43.35;46.66;;
66459;Laerm;70605;52.550;4.730;2023-08-01T00:07:47;44.13;43.20;49.19;;
66459;Laerm;70605;52.550;4.730;2023-08-01T00:07:58;43.87;43.11;46.42;;
66459;Laerm;70605;52.550;4.730;2023-08-01T00:08:08;45.85;43.12;55.30;;
66459;Laerm;70605;52.550;4.730;2023-08-01T00:08:18;44.90;43.51;49.12;;
66459;Laerm;70605;52.550;4.730;2023-08-01T00:08:28;50.43;44.57;59.45;;
66459;Laerm;70605;52.550;4.730;2023-08-01T00:08:39;54.83;46.10;59.18;;
66459;Laerm;70605;52.550;4.730;2023-08-01T00:08:49;49.72;45.80;57.44;;
66459;Laerm;70605;52.550;4.730;2023-08-01T00:08:59;45.55;43.47;49.05;;
66459;Laerm;70605;52.550;4.730;2023-08-01T00:09:09;44.86;43.46;51.69;;
66459;Laerm;70605;52.550;4.730;2023-08-01T00:09:20;46.29;43.25;58.81;;
66459;Laerm;70605;52.550;4.730;2023-08-01T00:09:30;45.74;43.41;56.52;;
66459;Laerm;70605;52.550;4.730;2023-08-01T00:09:40;48.96;43.27;64.75;;
66459;Laerm;70605;52.550;4.730;2023-08-01T00:09:50;45.23;43.36;53.26;;
66459;Laerm;70605;52.550;4.730;2023-08-01T00:10:01;43.95;43.23;44.77;;
66459;Laerm;70605;52.550;4.730;2023-08-01T00:10:11;43.99;42.94;45.82;;
66459;Laerm;70605;52.550;4.730;2023-08-01T00:10:22;43.92;43.12;44.52;;
66459;Laerm;70605;52.550;4.730;2023-08-01T00:10:32;43.88;42.95;44.69;;
66459;Laerm;70605;52.550;4.730;2023-08-01T00:10:42;43.96;43.12;44.90;;
66459;Laerm;70605;52.550;4.730;2023-08-01T00:10:52;47.98;43.21;58.45;;
66459;Laerm;70605;52.550;4.730;2023-08-01T00:11:03;44.08;43.22;48.38;;
66459;Laerm;70605;52.550;4.730;2023-08-01T00:11:13;45.33;43.21;57.87;;
66459;Laerm;70605;52.550;4.730;2023-08-01T00:11:24;43.85;42.97;45.08;;
66459;Laerm;70605;52.550;4.730;2023-08-01T00:11:34;43.88;43.15;45.41;;
66459;Laerm;70605;52.550;4.730;2023-08-01T00:11:44;43.91;42.98;45.82;;
66459;Laerm;70605;52.550;4.730;2023-08-01T00:11:55;44.30;43.21;49.97;;
66459;Laerm;70605;52.550;4.730;2023-08-01T00:12:05;44.88;43.00;51.36;;
66459;Laerm;70605;52.550;4.730;2023-08-01T00:12:15;44.35;42.83;53.69;;
66459;Laerm;70605;52.550;4.730;2023-08-01T00:12:27;43.90;42.93;45.14;;
66459;Laerm;70605;52.550;4.730;2023-08-01T00:12:37;43.80;42.95;44.71;;
66459;Laerm;70605;52.550;4.730;2023-08-01T00:12:47;43.84;42.87;44.69;;
66459;Laerm;70605;52.550;4.730;2023-08-01T00:12:57;43.84;42.89;46.67;;
66459;Laerm;70605;52.550;4.730;2023-08-01T00:13:08;44.26;43.22;51.27;;
66459;Laerm;70605;52.550;4.730;2023-08-01T00:13:18;44.08;43.07;45.68;;
66459;Laerm;70605;52.550;4.730;2023-08-01T00:13:28;44.08;43.18;45.07;;
66459;Laerm;70605;52.550;4.730;2023-08-01T00:13:39;43.97;42.85;46.29;;
66459;Laerm;70605;52.550;4.730;2023-08-01T00:13:49;43.89;42.86;46.75;;
66459;Laerm;70605;52.550;4.730;2023-08-01T00:13:59;43.87;42.93;48.56;;
66459;Laerm;70605;52.550;4.730;2023-08-01T00:14:09;43.97;43.00;46.80;;
66459;Laerm;70605;52.550;4.730;2023-08-01T00:14:20;43.87;43.12;44.71;;
66459;Laerm;70605;52.550;4.730;2023-08-01T00:14:35;44.08;43.09;45.75;;
66459;Laerm;70605;52.550;4.730;2023-08-01T00:14:45;43.95;43.04;44.72;;
66459;Laerm;70605;52.550;4.730;2023-08-01T00:14:55;44.11;43.25;46.66;;
66459;Laerm;70605;52.550;4.730;2023-08-01T00:15:06;44.72;43.03;55.77;;
66459;Laerm;70605;52.550;4.730;2023-08-01T00:15:16;44.68;43.23;51.80;;
66459;Laerm;70605;52.550;4.730;2023-08-01T00:15:27;44.46;42.96;48.72;;
66459;Laerm;70605;52.550;4.730;2023-08-01T00:15:37;47.41;42.97;60.71;;
66459;Laerm;70605;52.550;4.730;2023-08-01T00:15:47;45.89;43.40;58.56;;
66459;Laerm;70605;52.550;4.730;2023-08-01T00:15:57;44.17;43.16;52.67;;
66459;Laerm;70605;52.550;4.730;2023-08-01T00:16:08;44.00;43.01;44.87;;
66459;Laerm;70605;52.550;4.730;2023-08-01T00:16:18;43.91;42.88;46.85;;
66459;Laerm;70605;52.550;4.730;2023-08-01T00:16:28;44.16;42.98;47.33;;
66459;Laerm;70605;52.550;4.730;2023-08-01T00:16:38;45.73;43.84;55.00;;
66459;Laerm;70605;52.550;4.730;2023-08-01T00:16:49;51.71;43.91;67.74;;
66459;Laerm;70605;52.550;4.730;2023-08-01T00:16:59;44.86;43.32;51.43;;
66459;Laerm;70605;52.550;4.730;2023-08-01T00:17:09;44.23;43.05;46.58;;
66459;Laerm;70605;52.550;4.730;2023-08-01T00:17:20;44.05;42.88;47.16;;
66459;Laerm;70605;52.550;4.730;2023-08-01T00:17:31;44.16;43.15;47.47;;
66459;Laerm;70605;52.550;4.730;2023-08-01T00:17:41;43.83;43.10;44.94;;
66459;Laerm;70605;52.550;4.730;2023-08-01T00:17:51;43.79;43.03;44.76;;
66459;Laerm;70605;52.550;4.730;2023-08-01T00:18:01;43.87;42.75;49.26;;
66459;Laerm;70605;52.550;4.730;2023-08-01T00:18:12;43.81;42.90;44.59;;
66459;Laerm;70605;52.550;4.730;2023-08-01T00:18:22;44.08;43.29;47.37;;
66459;Laerm;70605;52.550;4.730;2023-08-01T00:18:32;43.91;43.09;44.66;;
66459;Laerm;70605;52.550;4.730;2023-08-01T00:18:42;43.95;42.77;44.75;;
66459;Laerm;70605;52.550;4.730;2023-08-01T00:18:53;44.18;43.11;47.44;;
66459;Laerm;70605;52.550;4.730;2023-08-01T00:19:03;44.34;43.50;45.22;;
66459;Laerm;70605;52.550;4.730;2023-08-01T00:19:14;46.46;43.74;50.07;;
66459;Laerm;70605;52.550;4.730;2023-08-01T00:19:24;51.34;44.12;58.07;;
66459;Laerm;70605;52.550;4.730;2023-08-01T00:19:34;54.86;48.79;60.40;;
66459;Laerm;70605;52.550;4.730;2023-08-01T00:19:44;50.19;46.30;55.28;;
66459;Laerm;70605;52.550;4.730;2023-08-01T00:19:55;46.43;44.02;49.84;;
66459;Laerm;70605;52.550;4.730;2023-08-01T00:20:05;44.84;43.52;47.32;;
66459;Laerm;70605;52.550;4.730;2023-08-01T00:20:16;45.57;43.25;55.84;;
66459;Laerm;70605;52.550;4.730;2023-08-01T00:20:26;44.27;43.48;45.36;;
66459;Laerm;70605;52.550;4.730;2023-08-01T00:20:36;50.57;43.72;67.49;;
66459;Laerm;70605;52.550;4.730;2023-08-01T00:20:47;46.58;43.49;60.14;;
66459;Laerm;70605;52.550;4.730;2023-08-01T00:20:57;44.05;43.24;44.95;;
66459;Laerm;70605;52.550;4.730;2023-08-01T00:21:08;44.12;43.22;48.80;;
66459;Laerm;70605;52.550;4.730;2023-08-01T00:21:21;43.93;42.94;44.69;;
66459;Laerm;70605;52.550;4.730;2023-08-01T00:21:31;43.91;43.10;44.70;;
66459;Laerm;70605;52.550;4.730;2023-08-01T00:21:42;43.96;43.20;49.37;;
66459;Laerm;70605;52.550;4.730;2023-08-01T00:21:52;44.25;43.10;51.21;;
66459;Laerm;70605;52.550;4.730;2023-08-01T00:22:02;44.11;43.33;46.79;;
66459;Laerm;70605;52.550;4.730;2023-08-01T00:22:13;45.05;43.36;58.63;;
66459;Laerm;70605;52.550;4.730;2023-08-01T00:22:23;44.09;43.29;44.99;;
66459;Laerm;70605;52.550;4.730;2023-08-01T00:22:33;44.28;43.29;49.90;;
66459;Laerm;70605;52.550;4.730;2023-08-01T00:22:43;44.47;43.19;49.30;;
66459;Laerm;70605;52.550;4.730;2023-08-01T00:22:54;44.04;43.25;47.52;;
66459;Laerm;70605;52.550;4.730;2023-08-01T00:23:05;44.39;43.23;53.16;;
66459;Laerm;70605;52.550;4.730;2023-08-01T00:23:15;45.60;43.14;53.97;;
66459;Laerm;70605;52.550;4.730;2023-08-01T00:23:25;44.11;43.07;44.99;;
66459;Laerm;70605;52.550;4.730;2023-08-01T00:23:35;44.01;43.02;44.95;;
66459;Laerm;70605;52.550;4.730;2023-08-01T00:23:46;44.11;43.02;45.33;;
66459;Laerm;70605;52.550;4.730;2023-08-01T00:23:56;43.89;42.97;44.88;;
66459;Laerm;70605;52.550;4.730;2023-08-01T00:24:06;44.89;43.10;53.05;;
66459;Laerm;70605;52.550;4.730;2023-08-01T00:24:18;44.21;43.12;50.58;;
66459;Laerm;70605;52.550;4.730;2023-08-01T00:24:28;44.01;43.06;44.93;;
66459;Laerm;70605;52.550;4.730;2023-08-01T00:24:38;43.84;42.86;44.93;;
66459;Laerm;70605;52.550;4.730;2023-08-01T00:24:49;44.02;43.03;44.78;;
66459;Laerm;70605;52.550;4.730;2023-08-01T00:24:59;44.02;42.91;45.30;;
66459;Laerm;70605;52.550;4.730;2023-08-01T00:25:09;44.35;43.36;46.02;;
66459;Laerm;70605;52.550;4.730;2023-08-01T00:25:19;44.40;43.27;49.33;;
66459;Laerm;70605;52.550;4.730;2023-08-01T00:25:30;45.38;43.21;55.48;;
66459;Laerm;70605;52.550;4.730;2023-08-01T00:25:40;48.41;43.43;59.90;;
66459;Laerm;70605;52.550;4.730;2023-08-01T00:25:50;45.49;42.88;56.69;;
66459;Laerm;70605;52.550;4.730;2023-08-01T00:26:01;44.11;43.33;48.02;;
66459;Laerm;70605;52.550;4.730;2023-08-01T00:26:12;44.26;43.17;47.36;;
66459;Laerm;70605;52.550;4.730;2023-08-01T00:26:22;43.86;42.89;46.48;;
66459;Laerm;70605;52.550;4.730;2023-08-01T00:26:32;43.82;43.02;44.70;;
66459;Laerm;70605;52.550;4.730;2023-08-01T00:26:43;43.77;42.69;44.45;;
66459;Laerm;70605;52.550;4.730;2023-08-01T00:26:53;44.03;42.95;48.16;;
66459;Laerm;70605;52.550;4.730;2023-08-01T00:27:05;43.85;42.55;44.76;;
66459;Laerm;70605;52.550;4.730;2023-08-01T00:27:19;43.84;42.71;45.68;;
66459;Laerm;70605;52.550;4.730;2023-08-01T00:27:29;43.81;43.05;44.79;;
66459;Laerm;70605;52.550;4.730;2023-08-01T00:27:42;43.86;42.73;45.01;;
66459;Laerm;70605;52.550;4.730;2023-08-01T00:27:52;43.99;43.12;44.83;;
66459;Laerm;70605;52.550;4.730;2023-08-01T00:28:03;43.97;43.09;44.91;;
66459;Laerm;70605;52.550;4.730;2023-08-01T00:28:13;44.06;43.03;48.32;;
66459;Laerm;70605;52.550;4.730;2023-08-01T00:28:23;44.30;43.37;48.03;;
66459;Laerm;70605;52.550;4.730;2023-08-01T00:28:33;44.59;43.15;51.59;;
66459;Laerm;70605;52.550;4.730;2023-08-01T00:28:44;44.14;43.14;47.91;;
66459;Laerm;70605;52.550;4.730;2023-08-01T00:28:54;45.17;42.72;51.76;;
66459;Laerm;70605;52.550;4.730;2023-08-01T00:29:04;44.20;42.96;47.62;;
66459;Laerm;70605;52.550;4.730;2023-08-01T00:29:15;44.30;43.16;49.09;;
66459;Laerm;70605;52.550;4.730;2023-08-01T00:29:25;44.02;43.04;44.88;;
66459;Laerm;70605;52.550;4.730;2023-08-01T00:29:35;44.08;43.22;46.57;;
66459;Laerm;70605;52.550;4.730;2023-08-01T00:29:46;44.12;43.25;47.58;;
66459;Laerm;70605;52.550;4.730;2023-08-01T00:29:56;44.58;43.17;49.72;;
66459;Laerm;70605;52.550;4.730;2023-08-01T00:30:07;43.93;43.20;44.94;;
66459;Laerm;70605;52.550;4.730;2023-08-01T00:30:17;44.07;43.19;45.40;;
66459;Laerm;70605;52.550;4.730;2023-08-01T00:30:27;44.70;43.36;47.57;;
66459;Laerm;70605;52.550;4.730;2023-08-01T00:30:38;48.68;43.64;54.93;;
66459;Laerm;70605;52.550;4.730;2023-08-01T00:30:48;52.17;46.66;57.30;;
66459;Laerm;70605;52.550;4.730;2023-08-01T00:31:05;55.17;48.30;61.58;;
66459;Laerm;70605;52.550;4.730;2023-08-01T00:31:15;47.97;43.96;55.12;;
66459;Laerm;70605;52.550;4.730;2023-08-01T00:31:25;44.84;43.62;48.96;;
66459;Laerm;70605;52.550;4.730;2023-08-01T00:31:36;44.43;43.66;45.59;;
66459;Laerm;70605;52.550;4.730;2023-08-01T00:31:46;44.81;43.49;52.04;;
66459;Laerm;70605;52.550;4.730;2023-08-01T00:31:56;44.20;43.31;46.96;;
66459;Laerm;70605;52.550;4.730;2023-08-01T00:32:07;44.37;43.30;51.76;;
66459;Laerm;70605;52.550;4.730;2023-08-01T00:32:17;44.63;43.04;53.30;;
66459;Laerm;70605;52.550;4.730;2023-08-01T00:32:27;43.73;42.83;44.85;;
66459;Laerm;70605;52.550;4.730;2023-08-01T00:32:37;43.87;43.02;45.67;;
66459;Laerm;70605;52.550;4.730;2023-08-01T00:32:48;47.28;43.18;67.11;;
66459;Laerm;70605;52.550;4.730;2023-08-01T00:32:58;44.06;43.12;48.04;;
66459;Laerm;70605;52.550;4.730;2023-08-01T00:33:08;45.91;43.21;57.95;;
66459;Laerm;70605;52.550;4.730;2023-08-01T00:33:19;44.16;43.28;48.00;;
66459;Laerm;70605;52.550;4.730;2023-08-01T00:33:29;48.32;43.23;59.41;;
66459;Laerm;70605;52.550;4.730;2023-08-01T00:33:39;51.16;43.95;64.02;;
66459;Laerm;70605;52.550;4.730;2023-08-01T00:33:49;46.23;43.42;57.18;;
66459;Laerm;70605;52.550;4.730;2023-08-01T00:34:00;44.87;43.66;48.88;;
66459;Laerm;70605;52.550;4.730;2023-08-01T00:34:10;45.11;43.45;56.28;;
66459;Laerm;70605;52.550;4.730;2023-08-01T00:34:20;49.33;43.86;63.83;;
66459;Laerm;70605;52.550;4.730;2023-08-01T00:34:30;49.94;43.32;64.49;;
66459;Laerm;70605;52.550;4.730;2023-08-01T00:34:41;44.16;43.18;46.74;;
66459;Laerm;70605;52.550;4.730;2023-08-01T00:34:51;44.04;42.87;45.50;;
66459;Laerm;70605;52.550;4.730;2023-08-01T00:35:02;44.00;43.04;49.47;;
66459;Laerm;70605;52.550;4.730;2023-08-01T00:35:12;43.87;43.14;44.75;;
66459;Laerm;70605;52.550;4.730;2023-08-01T00:35:23;44.04;42.99;46.63;;
66459;Laerm;70605;52.550;4.730;2023-08-01T00:35:33;44.19;43.17;45.28;;
66459;Laerm;70605;52.550;4.730;2023-08-01T00:35:43;44.11;43.07;47.11;;
66459;Laerm;70605;52.550;4.730;2023-08-01T00:35:54;46.07;43.25;57.32;;
66459;Laerm;70605;52.550;4.730;2023-08-01T00:36:04;44.18;43.27;46.83;;
66459;Laerm;70605;52.550;4.730;2023-08-01T00:36:19;44.00;42.88;45.11;;
66459;Laerm;70605;52.550;4.730;2023-08-01T00:36:29;43.80;42.76;44.99;;
66459;Laerm;70605;52.550;4.730;2023-08-01T00:36:39;43.79;42.94;45.44;;
66459;Laerm;70605;52.550;4.730;2023-08-01T00:36:49;43.78;42.97;45.52;;
66459;Laerm;70605;52.550;4.730;2023-08-01T00:37:00;43.88;42.95;44.65;;
66459;Laerm;70605;52.550;4.730;2023-08-01T00:37:10;44.17;43.22;46.92;;
66459;Laerm;70605;52.550;4.730;2023-08-01T00:37:21;51.62;43.75;63.52;;
66459;Laerm;70605;52.550;4.730;2023-08-01T00:37:31;45.43;43.24;56.48;;
66459;Laerm;70605;52.550;4.730;2023-08-01T00:37:41;47.26;43.24;59.23;;
66459;Laerm;70605;52.550;4.730;2023-08-01T00:37:51;43.95;43.21;45.09;;
66459;Laerm;70605;52.550;4.730;2023-08-01T00:38:02;43.96;43.13;45.93;;
66459;Laerm;70605;52.550;4.730;2023-08-01T00:38:12;43.96;43.02;44.97;;
66459;Laerm;70605;52.550;4.730;2023-08-01T00:38:22;44.04;43.06;46.45;;
66459;Laerm;70605;52.550;4.730;2023-08-01T00:38:32;44.03;43.08;45.07;;
66459;Laerm;70605;52.550;4.730;2023-08-01T00:38:43;45.83;43.41;59.04;;
66459;Laerm;70605;52.550;4.730;2023-08-01T00:38:53;44.20;43.28;45.88;;
66459;Laerm;70605;52.550;4.730;2023-08-01T00:39:03;45.44;43.35;59.11;;
66459;Laerm;70605;52.550;4.730;2023-08-01T00:39:14;45.14;43.32;53.18;;
66459;Laerm;70605;52.550;4.730;2023-08-01T00:39:24;44.04;43.19;44.92;;
66459;Laerm;70605;52.550;4.730;2023-08-01T00:39:34;44.06;42.76;45.25;;
66459;Laerm;70605;52.550;4.730;2023-08-01T00:39:44;43.98;42.80;45.62;;
66459;Laerm;70605;52.550;4.730;2023-08-01T00:39:55;44.28;43.15;51.54;;
66459;Laerm;70605;52.550;4.730;2023-08-01T00:40:05;49.25;43.23;63.66;;
66459;Laerm;70605;52.550;4.730;2023-08-01T00:40:16;43.90;43.02;46.18;;
66459;Laerm;70605;52.550;4.730;2023-08-01T00:40:30;43.84;42.84;44.72;;
66459;Laerm;70605;52.550;4.730;2023-08-01T00:40:41;43.90;43.04;45.05;;
66459;Laerm;70605;52.550;4.730;2023-08-01T00:40:51;43.99;42.92;45.38;;
66459;Laerm;70605;52.550;4.730;2023-08-01T00:41:01;44.40;43.00;50.55;;
66459;Laerm;70605;52.550;4.730;2023-08-01T00:41:12;44.08;42.74;50.11;;
66459;Laerm;70605;52.550;4.730;2023-08-01T00:41:22;45.44;43.14;55.19;;
66459;Laerm;70605;52.550;4.730;2023-08-01T00:41:32;46.87;43.11;57.41;;
66459;Laerm;70605;52.550;4.730;2023-08-01T00:41:42;45.43;42.97;54.65;;
66459;Laerm;70605;52.550;4.730;2023-08-01T00:41:53;43.71;42.85;44.57;;
66459;Laerm;70605;52.550;4.730;2023-08-01T00:42:03;43.72;42.47;44.61;;
66459;Laerm;70605;52.550;4.730;2023-08-01T00:42:13;43.72;42.61;44.60;;
66459;Laerm;70605;52.550;4.730;2023-08-01T00:42:24;43.79;42.99;44.72;;
66459;Laerm;70605;52.550;4.730;2023-08-01T00:42:37;43.96;43.15;46.33;;
66459;Laerm;70605;52.550;4.730;2023-08-01T00:42:48;43.93;42.97;44.92;;
66459;Laerm;70605;52.550;4.730;2023-08-01T00:42:58;43.85;42.92;44.74;;
66459;Laerm;70605;52.550;4.730;2023-08-01T00:43:09;43.92;43.29;44.58;;
66459;Laerm;70605;52.550;4.730;2023-08-01T00:43:19;44.08;43.24;45.10;;
66459;Laerm;70605;52.550;4.730;2023-08-01T00:43:29;44.02;43.13;45.73;;
66459;Laerm;70605;52.550;4.730;2023-08-01T00:43:40;44.24;43.41;48.12;;
66459;Laerm;70605;52.550;4.730;2023-08-01T00:43:50;43.96;43.22;44.74;;
66459;Laerm;70605;52.550;4.730;2023-08-01T00:44:00;44.24;43.27;47.76;;
66459;Laerm;70605;52.550;4.730;2023-08-01T00:44:11;44.43;43.42;47.31;;
66459;Laerm;70605;52.550;4.730;2023-08-01T00:44:21;44.15;43.32;46.37;;
66459;Laerm;70605;52.550;4.730;2023-08-01T00:44:31;51.92;43.19;65.16;;
66459;Laerm;70605;52.550;4.730;2023-08-01T00:44:41;51.45;43.52;69.51;;
66459;Laerm;70605;52.550;4.730;2023-08-01T00:44:52;44.25;43.14;49.51;;
66459;Laerm;70605;52.550;4.730;2023-08-01T00:45:04;44.28;43.14;47.00;;
66459;Laerm;70605;52.550;4.730;2023-08-01T00:45:14;44.10;43.25;45.11;;
66459;Laerm;70605;52.550;4.730;2023-08-01T00:45:28;44.04;43.03;45.57;;
66459;Laerm;70605;52.550;4.730;2023-08-01T00:45:39;43.87;42.91;44.78;;
66459;Laerm;70605;52.550;4.730;2023-08-01T00:45:49;43.91;43.06;44.88;;
66459;Laerm;70605;52.550;4.730;2023-08-01T00:45:59;44.17;42.92;50.31;;
66459;Laerm;70605;52.550;4.730;2023-08-01T00:46:11;43.95;43.03;46.16;;
66459;Laerm;70605;52.550;4.730;2023-08-01T00:46:21;43.85;43.12;44.58;;
66459;Laerm;70605;52.550;4.730;2023-08-01T00:46:32;43.79;42.92;44.70;;
66459;Laerm;70605;52.550;4.730;2023-08-01T00:46:42;43.97;43.02;44.87;;
66459;Laerm;70605;52.550;4.730;2023-08-01T00:46:53;44.04;43.07;45.10;;
66459;Laerm;70605;52.550;4.730;2023-08-01T00:47:03;44.12;43.27;46.92;;
66459;Laerm;70605;52.550;4.730;2023-08-01T00:47:13;49.04;43.38;60.18;;
66459;Laerm;70605;52.550;4.730;2023-08-01T00:47:24;44.40;43.08;51.65;;
66459;Laerm;70605;52.550;4.730;2023-08-01T00:47:34;44.95;42.91;54.59;;
66459;Laerm;70605;52.550;4.730;2023-08-01T00:47:44;43.99;43.14;44.89;;
66459;Laerm;70605;52.550;4.730;2023-08-01T00:47:55;44.03;43.03;46.84;;
66459;Laerm;70605;52.550;4.730;2023-08-01T00:48:06;44.18;43.12;45.84;;
66459;Laerm;70605;52.550;4.730;2023-08-01T00:48:16;44.68;43.17;48.07;;
66459;Laerm;70605;52.550;4.730;2023-08-01T00:48:29;46.69;43.96;54.19;;
66459;Laerm;70605;52.550;4.730;2023-08-01T00:48:39;55.97;46.95;64.49;;
66459;Laerm;70605;52.550;4.730;2023-08-01T00:48:50;54.84;46.41;58.72;;
66459;Laerm;70605;52.550;4.730;2023-08-01T00:49:00;48.54;44.41;53.88;;
66459;Laerm;70605;52.550;4.730;2023-08-01T00:49:11;45.11;43.71;50.19;;
66459;Laerm;70605;52.550;4.730;2023-08-01T00:49:22;47.30;43.32;60.00;;
66459;Laerm;70605;52.550;4.730;2023-08-01T00:49:32;47.58;43.44;60.19;;
66459;Laerm;70605;52.550;4.730;2023-08-01T00:49:42;45.21;43.42;53.76;;
66459;Laerm;70605;52.550;4.730;2023-08-01T00:49:53;44.69;43.18;49.76;;
66459;Laerm;70605;52.550;4.730;2023-08-01T00:50:03;44.47;43.57;48.15;;
66459;Laerm;70605;52.550;4.730;2023-08-01T00:50:14;45.87;43.51;59.11;;
66459;Laerm;70605;52.550;4.730;2023-08-01T00:50:24;44.22;43.24;51.27;;
66459;Laerm;70605;52.550;4.730;2023-08-01T00:50:34;44.17;43.14;45.26;;
66459;Laerm;70605;52.550;4.730;2023-08-01T00:50:45;44.12;42.92;45.07;;
66459;Laerm;70605;52.550;4.730;2023-08-01T00:50:59;44.60;43.32;51.29;;
66459;Laerm;70605;52.550;4.730;2023-08-01T00:51:10;43.90;42.93;45.12;;
66459;Laerm;70605;52.550;4.730;2023-08-01T00:51:22;43.81;42.95;44.53;;
66459;Laerm;70605;52.550;4.730;2023-08-01T00:51:32;44.15;43.18;45.91;;
66459;Laerm;70605;52.550;4.730;2023-08-01T00:51:42;44.42;43.07;47.63;;
66459;Laerm;70605;52.550;4.730;2023-08-01T00:51:53;46.15;43.29;54.68;;
66459;Laerm;70605;52.550;4.730;2023-08-01T00:52:04;47.25;43.22;61.48;;
66459;Laerm;70605;52.550;4.730;2023-08-01T00:52:14;44.37;43.38;46.56;;
66459;Laerm;70605;52.550;4.730;2023-08-01T00:52:24;44.40;43.42;47.56;;
66459;Laerm;70605;52.550;4.730;2023-08-01T00:52:35;43.94;42.95;45.86;;
66459;Laerm;70605;52.550;4.730;2023-08-01T00:52:45;43.85;42.79;44.93;;
66459;Laerm;70605;52.550;4.730;2023-08-01T00:52:55;44.80;42.91;52.64;;
66459;Laerm;70605;52.550;4.730;2023-08-01T00:53:06;47.26;43.07;59.59;;
66459;Laerm;70605;52.550;4.730;2023-08-01T00:53:16;44.67;43.08;54.96;;
66459;Laerm;70605;52.550;4.730;2023-08-01T00:53:28;43.97;43.10;47.42;;
66459;Laerm;70605;52.550;4.730;2023-08-01T00:53:38;43.94;43.20;44.78;;
66459;Laerm;70605;52.550;4.730;2023-08-01T00:53:49;44.06;43.18;45.74;;
66459;Laerm;70605;52.550;4.730;2023-08-01T00:54:00;44.42;43.06;51.07;;
66459;Laerm;70605;52.550;4.730;2023-08-01T00:54:10;44.02;43.21;46.71;;
66459;Laerm;70605;52.550;4.730;2023-08-01T00:54:20;44.00;43.10;47.44;;
66459;Laerm;70605;52.550;4.730;2023-08-01T00:54:31;44.53;43.07;52.75;;
66459;Laerm;70605;52.550;4.730;2023-08-01T00:54:46;43.78;42.79;45.32;;
66459;Laerm;70605;52.550;4.730;2023-08-01T00:54:56;43.77;43.05;44.80;;
66459;Laerm;70605;52.550;4.730;2023-08-01T00:55:06;45.05;42.89;55.10;;
66459;Laerm;70605;52.550;4.730;2023-08-01T00:55:17;45.97;43.02;56.40;;
66459;Laerm;70605;52.550;4.730;2023-08-01T00:55:27;43.84;42.92;44.67;;
66459;Laerm;70605;52.550;4.730;2023-08-01T00:55:39;44.14;42.84;52.31;;
66459;Laerm;70605;52.550;4.730;2023-08-01T00:55:51;44.47;43.24;51.80;;
66459;Laerm;70605;52.550;4.730;2023-08-01T00:56:01;44.01;43.08;44.95;;
66459;Laerm;70605;52.550;4.730;2023-08-01T00:56:11;44.02;42.80;46.33;;
66459;Laerm;70605;52.550;4.730;2023-08-01T00:56:22;44.13;43.26;45.05;;
66459;Laerm;70605;52.550;4.730;2023-08-01T00:56:32;43.82;43.03;44.70;;
66459;Laerm;70605;52.550;4.730;2023-08-01T00:56:43;43.78;42.78;44.45;;
66459;Laerm;70605;52.550;4.730;2023-08-01T00:56:54;43.98;42.73;45.94;;
66459;Laerm;70605;52.550;4.730;2023-08-01T00:57:05;45.21;43.11;56.10;;
66459;Laerm;70605;52.550;4.730;2023-08-01T00:57:15;44.79;43.25;51.02;;
66459;Laerm;70605;52.550;4.730;2023-08-01T00:57:25;49.21;43.29;62.91;;
66459;Laerm;70605;52.550;4.730;2023-08-01T00:57:36;44.20;43.06;45.51;;
66459;Laerm;70605;52.550;4.730;2023-08-01T00:57:46;44.13;43.34;46.70;;
66459;Laerm;70605;52.550;4.730;2023-08-01T00:57:57;44.38;43.19;50.43;;
66459;Laerm;70605;52.550;4.730;2023-08-01T00:58:07;46.79;43.03;61.39;;
66459;Laerm;70605;52.550;4.730;2023-08-01T00:58:17;51.48;43.86;62.75;;
66459;Laerm;70605;52.550;4.730;2023-08-01T00:58:27;51.65;43.90;63.32;;
66459;Laerm;70605;52.550;4.730;2023-08-01T00:58:38;45.03;42.95;54.06;;
66459;Laerm;70605;52.550;4.730;2023-08-01T00:58:48;44.09;43.29;45.08;;
66459;Laerm;70605;52.550;4.730;2023-08-01T00:58:58;44.66;43.06;52.61;;